Main page
METAR-TAF:

METAR-TAF

Airports :

Frankfurt, Germany

Frankfurt Airport

latitude: 50-03N, longitude: 008-36E, elevation: 111 m

Current weather observation

The report was made 15 minutes ago, at 08:50 UTC
Wind 5 kt from the North, varying between West/Northwest and East
Temperature 10°C
Humidity 50%
Pressure 1015 hPa
Visibility 10 km or more
Few clouds at a height of 4000 ft
Scattered clouds at a height of 25000 ft

METAR: EDDF 270850Z 01005KT 290V090 9999 FEW040 SCT250 10/M00 Q1015 NOSIG

Time: 11:05 (09:05 UTC)

Forecast

The report was made 4 hours and 5 minutes ago, at 05:00 UTC
Forecast valid from 27 at 06 UTC to 28 at 12 UTC
Wind 4 kt from the North
Visibility 10 km or more
Scattered clouds at a height of 4500 ft
Becoming
from 28 at 09 UTC to 28 at 11 UTC
Wind 6 kt from the West/Northwest

TAF: EDDF 270500Z 2706/2812 36004KT 9999 SCT045 BECMG 2809/2811 29006KT

Weather observations and forecasts of more than 4000 airports (METAR and TAF reports).

The available stations are represented by yellow and red dots on the map.

Hover mouse over dot to see the name of the station.

Then click to see weather observations and forecasts.

To change the map : click on the green buttons with a black cross to zoom in, on the green button with a dash to zoom out, or on the green arrows for adjacent maps.


METAR-TAF: